createdAt,value
2022-08-27T00:00:32.963Z,26.20
2022-08-27T00:02:59.900Z,26.20
2022-08-27T00:05:26.759Z,26.20
2022-08-27T00:07:53.871Z,26.20
2022-08-27T00:10:24.888Z,26.20
2022-08-27T00:12:52.719Z,26.20
2022-08-27T00:15:19.882Z,26.20
2022-08-27T00:17:47.665Z,26.20
2022-08-27T00:20:16.529Z,25.70
2022-08-27T00:22:43.379Z,26.20
2022-08-27T00:25:11.517Z,26.20
2022-08-27T00:27:38.832Z,26.20
2022-08-27T00:30:09.311Z,26.20
2022-08-27T00:32:36.111Z,26.20
2022-08-27T00:35:02.898Z,26.20
2022-08-27T00:37:29.742Z,26.20
2022-08-27T00:39:56.519Z,26.20
2022-08-27T00:42:23.367Z,26.20
2022-08-27T00:44:50.194Z,26.20
2022-08-27T00:47:24.824Z,26.20
2022-08-27T00:49:58.882Z,26.20
2022-08-27T00:52:33.282Z,26.20
2022-08-27T00:55:09.080Z,26.20
2022-08-27T00:57:39.071Z,26.20
2022-08-27T01:00:09.685Z,26.20
2022-08-27T01:02:36.655Z,26.20
2022-08-27T01:05:08.880Z,26.20
2022-08-27T01:07:39.273Z,26.20
2022-08-27T01:10:11.461Z,26.20
2022-08-27T01:12:38.871Z,26.10
2022-08-27T01:15:11.034Z,26.20
2022-08-27T01:17:42.960Z,26.20
2022-08-27T01:20:19.341Z,26.20
2022-08-27T01:23:04.606Z,26.10
2022-08-27T01:25:32.152Z,26.10
2022-08-27T01:28:00.973Z,26.20
2022-08-27T01:30:27.864Z,26.20
2022-08-27T01:32:54.765Z,26.10
2022-08-27T01:35:23.289Z,26.10
2022-08-27T01:37:52.565Z,26.10
2022-08-27T01:40:20.365Z,26.10
2022-08-27T01:42:50.911Z,26.10
2022-08-27T01:45:30.836Z,26.10
2022-08-27T01:47:58.533Z,26.10
2022-08-27T01:50:31.986Z,26.20
2022-08-27T01:53:03.438Z,26.10
2022-08-27T01:55:30.365Z,26.10
2022-08-27T01:57:57.345Z,26.10
2022-08-27T02:00:28.352Z,26.10
2022-08-27T02:02:56.540Z,26.10
2022-08-27T02:05:24.532Z,26.10
2022-08-27T02:07:51.460Z,26.10
2022-08-27T02:10:22.055Z,26.10
2022-08-27T02:12:49.578Z,26.10
2022-08-27T02:15:17.449Z,26.10
2022-08-27T02:17:44.295Z,26.10
2022-08-27T02:20:12.265Z,26.10
2022-08-27T02:22:39.450Z,26.10
2022-08-27T02:25:10.234Z,26.10
2022-08-27T02:27:37.279Z,26.10
2022-08-27T02:30:05.681Z,26.10
2022-08-27T02:32:32.898Z,26.10
2022-08-27T02:35:00.288Z,26.00
2022-08-27T02:37:27.788Z,26.10
2022-08-27T02:39:54.637Z,26.10
2022-08-27T02:42:21.560Z,26.10
2022-08-27T02:44:48.460Z,26.10
2022-08-27T02:47:16.738Z,26.10
2022-08-27T02:49:44.442Z,26.10
2022-08-27T02:52:11.371Z,26.10
2022-08-27T02:54:38.186Z,26.10
2022-08-27T02:57:06.222Z,26.10
2022-08-27T02:59:33.044Z,26.10
2022-08-27T03:01:59.934Z,26.10
2022-08-27T03:04:27.979Z,26.00
2022-08-27T03:06:55.140Z,26.00
2022-08-27T03:09:21.971Z,26.00
2022-08-27T03:11:48.881Z,26.00
2022-08-27T03:14:15.707Z,26.00
2022-08-27T03:16:42.512Z,26.00
2022-08-27T03:19:10.325Z,26.10
2022-08-27T03:21:37.170Z,26.00
2022-08-27T03:24:11.643Z,26.00
2022-08-27T03:26:41.556Z,26.00
2022-08-27T03:29:08.356Z,26.00
2022-08-27T03:31:35.200Z,26.00
2022-08-27T03:34:04.511Z,26.00
2022-08-27T03:36:31.894Z,26.00
2022-08-27T03:38:59.215Z,26.00
2022-08-27T03:41:43.437Z,26.00
2022-08-27T03:44:18.474Z,26.00
2022-08-27T03:46:48.992Z,26.00
2022-08-27T03:49:16.712Z,26.00
2022-08-27T03:51:48.143Z,26.00
2022-08-27T03:54:15.019Z,26.00
2022-08-27T03:56:41.841Z,26.00
2022-08-27T03:59:08.720Z,26.00
2022-08-27T04:01:36.025Z,26.00
2022-08-27T04:04:03.601Z,26.00
2022-08-27T04:06:30.430Z,26.00
2022-08-27T04:08:57.286Z,26.00
2022-08-27T04:11:24.179Z,26.00
2022-08-27T04:13:51.417Z,26.00
2022-08-27T04:16:18.330Z,25.90
2022-08-27T04:18:45.148Z,26.00
2022-08-27T04:21:14.150Z,26.00
2022-08-27T04:23:41.994Z,26.00
2022-08-27T04:26:11.106Z,26.00
2022-08-27T04:28:38.963Z,26.00
2022-08-27T04:31:06.737Z,26.00
2022-08-27T04:33:40.099Z,26.00
2022-08-27T04:36:10.039Z,26.00
2022-08-27T04:38:38.235Z,26.00
2022-08-27T04:41:27.448Z,26.00
2022-08-27T04:43:57.706Z,26.00
2022-08-27T04:46:31.031Z,26.00
2022-08-27T04:48:59.687Z,26.00
2022-08-27T04:51:27.450Z,26.00
2022-08-27T04:53:55.767Z,26.00
2022-08-27T04:56:23.697Z,25.90
2022-08-27T04:58:51.922Z,26.00
2022-08-27T05:01:22.033Z,25.90
2022-08-27T05:03:49.474Z,25.90
2022-08-27T05:06:16.340Z,25.90
2022-08-27T05:08:43.649Z,25.90
2022-08-27T05:11:13.615Z,25.90
2022-08-27T05:13:42.103Z,25.90
2022-08-27T05:16:11.750Z,25.90
2022-08-27T05:18:43.111Z,26.00
2022-08-27T05:21:20.485Z,25.90
2022-08-27T05:23:47.970Z,25.90
2022-08-27T05:26:15.315Z,25.90
2022-08-27T05:28:42.436Z,25.90
2022-08-27T05:31:12.158Z,25.90
2022-08-27T05:33:40.599Z,25.90
2022-08-27T05:36:08.619Z,25.90
2022-08-27T05:38:35.470Z,25.90
2022-08-27T05:41:14.453Z,25.90
2022-08-27T05:43:45.391Z,25.90
2022-08-27T05:46:16.808Z,25.90
2022-08-27T05:48:43.808Z,25.90
2022-08-27T05:51:13.612Z,25.90
2022-08-27T05:53:43.988Z,25.90
2022-08-27T05:56:19.969Z,25.90
2022-08-27T05:59:06.933Z,25.90
2022-08-27T06:01:41.721Z,25.90
2022-08-27T06:04:09.499Z,25.90
2022-08-27T06:06:38.681Z,25.90
2022-08-27T06:09:07.086Z,25.90
2022-08-27T06:11:34.954Z,25.90
2022-08-27T06:14:01.750Z,25.90
2022-08-27T06:16:28.762Z,25.90
2022-08-27T06:18:57.364Z,25.90
2022-08-27T06:21:25.022Z,25.90
2022-08-27T06:23:52.604Z,25.90
2022-08-27T06:26:20.467Z,25.90
2022-08-27T06:28:47.413Z,25.90
2022-08-27T06:31:18.594Z,25.90
2022-08-27T06:33:47.046Z,25.90
2022-08-27T06:36:16.765Z,25.90
2022-08-27T06:38:44.346Z,25.90
2022-08-27T06:41:16.372Z,25.90
2022-08-27T06:43:51.909Z,25.90
2022-08-27T06:46:22.100Z,25.90
2022-08-27T06:48:52.999Z,25.90
2022-08-27T06:51:27.589Z,25.90
2022-08-27T06:53:56.818Z,25.90
2022-08-27T06:56:24.306Z,25.90
2022-08-27T06:58:55.979Z,25.90
2022-08-27T07:01:25.810Z,25.90
2022-08-27T07:03:55.043Z,25.90
2022-08-27T07:06:26.614Z,25.90
2022-08-27T07:08:53.896Z,25.90
2022-08-27T07:11:21.883Z,25.90
2022-08-27T07:13:49.877Z,25.90
2022-08-27T07:16:22.202Z,25.90
2022-08-27T07:18:52.116Z,25.90
2022-08-27T07:21:22.858Z,25.90
2022-08-27T07:23:51.806Z,25.90
2022-08-27T07:26:19.566Z,25.90
2022-08-27T07:28:47.279Z,25.90
2022-08-27T07:31:20.010Z,25.90
2022-08-27T07:33:52.549Z,25.90
2022-08-27T07:36:21.637Z,25.90
2022-08-27T07:38:56.767Z,25.90
2022-08-27T07:41:31.990Z,25.90
2022-08-27T07:44:19.597Z,25.90
2022-08-27T07:46:49.361Z,25.90
2022-08-27T07:49:19.256Z,25.90
2022-08-27T07:51:46.325Z,25.90
2022-08-27T07:54:13.384Z,25.90
2022-08-27T07:56:40.456Z,25.90
2022-08-27T07:59:08.156Z,25.90
2022-08-27T08:01:35.363Z,25.90
2022-08-27T08:04:02.849Z,25.90
2022-08-27T08:06:29.781Z,25.90
2022-08-27T08:08:56.565Z,25.90
2022-08-27T08:11:23.332Z,25.90
2022-08-27T08:13:50.321Z,25.90
2022-08-27T08:16:17.210Z,25.90
2022-08-27T08:18:44.083Z,25.90
2022-08-27T08:21:13.615Z,25.90
2022-08-27T08:23:41.077Z,25.90
2022-08-27T08:26:08.734Z,25.90
2022-08-27T08:28:36.022Z,25.90
2022-08-27T08:31:03.306Z,25.90
2022-08-27T08:33:31.514Z,25.90
2022-08-27T08:36:11.690Z,25.90
2022-08-27T08:38:39.950Z,25.50
2022-08-27T08:41:25.061Z,25.90
2022-08-27T08:43:51.951Z,25.90
2022-08-27T08:46:30.495Z,25.90
2022-08-27T08:49:02.430Z,25.90
2022-08-27T08:51:40.384Z,25.90
2022-08-27T08:54:31.154Z,25.90
2022-08-27T08:57:06.733Z,25.90
2022-08-27T08:59:45.978Z,26.30
2022-08-27T09:02:15.287Z,25.90
2022-08-27T09:04:44.406Z,25.90
2022-08-27T09:07:38.548Z,25.90
2022-08-27T09:10:28.029Z,25.90
2022-08-27T09:13:00.885Z,25.90
2022-08-27T09:15:31.834Z,25.90
2022-08-27T09:18:14.507Z,25.90
2022-08-27T09:20:49.458Z,25.90
2022-08-27T09:23:54.449Z,25.90
2022-08-27T09:26:25.910Z,25.90
2022-08-27T09:29:18.964Z,25.90
2022-08-27T09:32:08.423Z,25.90
2022-08-27T09:34:41.998Z,25.90
2022-08-27T09:37:15.746Z,25.90
2022-08-27T09:40:13.683Z,25.90
2022-08-27T09:42:55.720Z,25.90
2022-08-27T09:45:32.486Z,25.90
2022-08-27T09:48:07.633Z,25.90
2022-08-27T09:50:54.300Z,25.90
2022-08-27T09:53:25.388Z,25.90
2022-08-27T09:55:59.269Z,25.90
2022-08-27T09:58:49.934Z,25.90
2022-08-27T10:01:18.181Z,25.90
2022-08-27T10:03:45.479Z,25.90
2022-08-27T10:06:12.431Z,25.90
2022-08-27T10:08:50.333Z,25.90
2022-08-27T10:11:37.116Z,25.90
2022-08-27T10:14:30.453Z,25.90
2022-08-27T10:17:17.548Z,25.90
2022-08-27T10:20:10.722Z,25.90
2022-08-27T10:23:07.321Z,25.90
2022-08-27T10:25:43.152Z,25.90
2022-08-27T10:28:16.262Z,25.90
2022-08-27T10:31:03.298Z,25.90
2022-08-27T10:34:03.810Z,25.90
2022-08-27T10:36:45.692Z,25.90
2022-08-27T10:39:15.519Z,25.90
2022-08-27T10:41:47.782Z,25.90
2022-08-27T10:44:39.421Z,25.90
2022-08-27T10:47:29.460Z,25.90
2022-08-27T10:50:06.701Z,25.90
2022-08-27T10:53:08.557Z,25.90
2022-08-27T10:55:45.915Z,25.90
2022-08-27T10:58:27.002Z,25.90
2022-08-27T11:01:41.986Z,25.90
2022-08-27T11:04:18.331Z,25.90
2022-08-27T11:06:51.360Z,25.90
2022-08-27T11:09:23.411Z,25.90
2022-08-27T11:14:53.412Z,25.90
2022-08-27T11:17:53.987Z,25.90
2022-08-27T11:20:20.814Z,25.90
2022-08-27T11:23:08.651Z,25.90
2022-08-27T11:25:51.087Z,25.90
2022-08-27T11:28:30.173Z,25.90
2022-08-27T11:31:16.081Z,25.90
2022-08-27T11:33:51.803Z,25.90
2022-08-27T11:36:24.967Z,25.90
2022-08-27T11:39:03.117Z,25.90
2022-08-27T11:41:54.266Z,25.90
2022-08-27T11:44:24.237Z,25.90
2022-08-27T11:47:08.893Z,25.90
2022-08-27T11:49:46.064Z,25.90
2022-08-27T11:52:21.212Z,25.80
2022-08-27T11:54:57.036Z,25.90
2022-08-27T11:57:33.816Z,25.90
2022-08-27T12:00:16.684Z,25.90
2022-08-27T12:02:44.759Z,25.90
2022-08-27T12:05:33.918Z,25.90
2022-08-27T12:08:17.294Z,25.90
2022-08-27T12:10:58.430Z,25.90
2022-08-27T12:13:34.088Z,25.90
2022-08-27T12:16:25.700Z,25.90
2022-08-27T12:19:17.952Z,25.90
2022-08-27T12:22:09.644Z,26.00
2022-08-27T12:24:58.010Z,26.00
2022-08-27T12:27:32.085Z,26.00
2022-08-27T12:30:06.947Z,26.00
2022-08-27T12:32:33.791Z,26.00
2022-08-27T12:35:06.005Z,26.00
2022-08-27T12:37:45.578Z,26.10
2022-08-27T12:40:25.064Z,26.10
2022-08-27T12:43:04.958Z,26.10
2022-08-27T12:45:31.903Z,26.10
2022-08-27T12:47:58.735Z,26.10
2022-08-27T12:50:30.566Z,26.10
2022-08-27T12:53:18.229Z,26.10
2022-08-27T12:55:55.800Z,26.10
2022-08-27T12:59:00.072Z,26.10
2022-08-27T13:01:52.518Z,26.00
2022-08-27T13:04:24.043Z,26.10
2022-08-27T13:06:51.288Z,26.10
2022-08-27T13:09:31.488Z,26.00
2022-08-27T13:12:00.124Z,26.10
2022-08-27T13:14:34.912Z,26.10
2022-08-27T13:17:13.641Z,26.00
2022-08-27T13:19:52.960Z,26.00
2022-08-27T13:22:32.232Z,26.00
2022-08-27T13:24:59.968Z,26.00
2022-08-27T13:27:30.222Z,26.00
2022-08-27T13:30:02.499Z,26.00
2022-08-27T13:32:30.805Z,26.00
2022-08-27T13:35:00.122Z,26.00
2022-08-27T13:37:41.823Z,26.00
2022-08-27T13:40:10.320Z,26.00
2022-08-27T13:42:42.793Z,26.00
2022-08-27T13:45:09.874Z,26.00
2022-08-27T13:47:47.385Z,26.00
2022-08-27T13:50:27.486Z,26.00
2022-08-27T13:53:25.506Z,26.00
2022-08-27T13:55:55.748Z,26.00
2022-08-27T13:58:28.801Z,26.00
2022-08-27T14:01:08.514Z,26.00
2022-08-27T14:03:45.858Z,26.10
2022-08-27T14:06:41.183Z,26.00
2022-08-27T14:09:17.367Z,26.00
2022-08-27T14:11:45.464Z,26.00
2022-08-27T14:14:13.073Z,26.00
2022-08-27T14:16:40.257Z,26.00
2022-08-27T14:19:11.407Z,26.00
2022-08-27T14:21:41.652Z,26.00
2022-08-27T14:24:08.864Z,26.00
2022-08-27T14:26:35.705Z,26.00
2022-08-27T14:29:02.584Z,26.00
2022-08-27T14:31:29.548Z,26.00
2022-08-27T14:33:56.426Z,26.00
2022-08-27T14:36:25.349Z,26.00
2022-08-27T14:38:54.003Z,26.00
2022-08-27T14:41:21.812Z,26.00
2022-08-27T14:43:49.225Z,26.00
2022-08-27T14:46:27.688Z,26.00
2022-08-27T14:48:57.795Z,26.00
2022-08-27T14:51:32.654Z,26.00
2022-08-27T14:53:59.546Z,26.00
2022-08-27T14:56:27.079Z,26.00
2022-08-27T14:58:54.277Z,25.90
2022-08-27T15:01:24.159Z,26.00
2022-08-27T15:03:51.892Z,26.00
2022-08-27T15:06:22.237Z,26.00
2022-08-27T15:08:51.413Z,26.00
2022-08-27T15:11:34.503Z,26.00
2022-08-27T15:14:04.278Z,26.00
2022-08-27T15:16:34.201Z,26.00
2022-08-27T15:19:01.985Z,26.00
2022-08-27T15:21:30.656Z,26.00
2022-08-27T15:24:03.498Z,25.90
2022-08-27T15:26:31.396Z,26.00
2022-08-27T15:29:01.676Z,25.90
2022-08-27T15:31:31.052Z,26.00
2022-08-27T15:33:58.045Z,26.00
2022-08-27T15:36:25.435Z,25.90
2022-08-27T15:38:52.413Z,25.90
2022-08-27T15:41:19.585Z,25.90
2022-08-27T15:43:46.392Z,25.90
2022-08-27T15:46:13.343Z,25.90
2022-08-27T15:48:40.686Z,25.90
2022-08-27T15:51:10.924Z,25.90
2022-08-27T15:53:38.752Z,25.90
2022-08-27T15:56:07.870Z,25.90
2022-08-27T15:58:36.159Z,25.90
2022-08-27T16:01:09.084Z,25.90
2022-08-27T16:03:36.727Z,25.90
2022-08-27T16:06:05.272Z,25.90
2022-08-27T16:08:36.640Z,25.90
2022-08-27T16:11:03.897Z,25.90
2022-08-27T16:13:31.067Z,25.90
2022-08-27T16:15:58.436Z,25.90
2022-08-27T16:18:29.196Z,25.90
2022-08-27T16:20:58.278Z,25.90
2022-08-27T16:23:26.415Z,25.90
2022-08-27T16:25:53.971Z,25.90
2022-08-27T16:28:20.956Z,25.90
2022-08-27T16:30:49.992Z,25.90
2022-08-27T16:33:17.415Z,25.90
2022-08-27T16:35:44.470Z,25.90
2022-08-27T16:38:12.223Z,25.90
2022-08-27T16:40:46.776Z,25.90
2022-08-27T16:43:23.314Z,25.90
2022-08-27T16:45:52.105Z,25.90
2022-08-27T16:48:38.364Z,25.90
2022-08-27T16:51:07.734Z,26.50
2022-08-27T16:53:39.893Z,25.90
2022-08-27T16:56:06.979Z,25.90
2022-08-27T16:58:34.073Z,25.90
2022-08-27T17:01:07.261Z,25.90
2022-08-27T17:04:07.323Z,25.90
2022-08-27T17:06:32.082Z,25.90
2022-08-27T17:08:59.547Z,25.90
2022-08-27T17:11:28.701Z,25.90
2022-08-27T17:14:02.348Z,25.90
2022-08-27T17:16:32.077Z,25.90
2022-08-27T17:19:02.970Z,25.90
2022-08-27T17:21:31.070Z,25.90
2022-08-27T17:24:01.701Z,25.90
2022-08-27T17:26:30.900Z,25.90
2022-08-27T17:28:58.391Z,25.90
2022-08-27T17:31:38.774Z,25.90
2022-08-27T17:34:07.376Z,25.90
2022-08-27T17:36:34.760Z,25.90
2022-08-27T17:39:02.958Z,25.90
2022-08-27T17:41:34.328Z,25.90
2022-08-27T17:44:05.494Z,25.90
2022-08-27T17:46:32.621Z,25.90
2022-08-27T17:48:59.717Z,25.80
2022-08-27T17:51:27.943Z,25.90
2022-08-27T17:54:00.458Z,25.80
2022-08-27T17:56:29.204Z,25.80
2022-08-27T17:58:56.460Z,25.90
2022-08-27T18:01:30.795Z,25.90
2022-08-27T18:03:59.188Z,25.80
2022-08-27T18:06:27.790Z,25.80
2022-08-27T18:08:54.893Z,25.80
2022-08-27T18:11:21.881Z,25.80
2022-08-27T18:13:52.708Z,25.80
2022-08-27T18:16:19.972Z,25.80
2022-08-27T18:18:47.228Z,25.80
2022-08-27T18:21:17.594Z,25.80
2022-08-27T18:23:52.249Z,25.80
2022-08-27T18:26:21.535Z,25.80
2022-08-27T18:28:49.034Z,25.80
2022-08-27T18:31:19.676Z,25.80
2022-08-27T18:33:47.014Z,25.80
2022-08-27T18:36:14.911Z,25.80
2022-08-27T18:38:41.871Z,25.80
2022-08-27T18:41:09.106Z,25.80
2022-08-27T18:43:36.265Z,25.80
2022-08-27T18:46:05.051Z,25.80
2022-08-27T18:48:32.575Z,25.80
2022-08-27T18:51:01.799Z,25.80
2022-08-27T18:53:32.442Z,25.80
2022-08-27T18:55:59.670Z,25.80
2022-08-27T18:58:27.202Z,25.80
2022-08-27T19:00:57.943Z,25.80
2022-08-27T19:03:37.293Z,25.80
2022-08-27T19:06:07.902Z,25.80
2022-08-27T19:08:36.639Z,25.80
2022-08-27T19:11:03.599Z,25.80
2022-08-27T19:13:31.214Z,25.80
2022-08-27T19:16:04.787Z,25.80
2022-08-27T19:18:34.194Z,25.80
2022-08-27T19:21:01.106Z,25.80
2022-08-27T19:23:27.951Z,25.70
2022-08-27T19:25:55.229Z,25.80
2022-08-27T19:28:31.318Z,25.80
2022-08-27T19:30:58.124Z,25.80
2022-08-27T19:33:24.989Z,25.80
2022-08-27T19:35:51.982Z,25.80
2022-08-27T19:38:18.997Z,25.70
2022-08-27T19:40:45.797Z,25.70
2022-08-27T19:43:12.644Z,25.70
2022-08-27T19:45:40.497Z,25.80
2022-08-27T19:48:08.680Z,25.70
2022-08-27T19:50:35.599Z,25.80
2022-08-27T19:53:02.486Z,25.70
2022-08-27T19:55:29.415Z,25.70
2022-08-27T19:57:56.457Z,25.70
2022-08-27T20:00:25.066Z,25.70
2022-08-27T20:02:55.365Z,25.70
2022-08-27T20:05:23.008Z,25.70
2022-08-27T20:07:53.588Z,25.70
2022-08-27T20:10:31.637Z,25.70
2022-08-27T20:13:04.417Z,25.70
2022-08-27T20:15:31.429Z,26.10
2022-08-27T20:18:01.794Z,25.70
2022-08-27T20:20:29.481Z,25.70
2022-08-27T20:22:56.234Z,25.70
2022-08-27T20:25:23.731Z,25.70
2022-08-27T20:27:50.793Z,25.70
2022-08-27T20:30:20.112Z,25.70
2022-08-27T20:32:47.238Z,25.70
2022-08-27T20:35:15.078Z,25.70
2022-08-27T20:37:42.678Z,25.70
2022-08-27T20:40:16.525Z,25.70
2022-08-27T20:42:44.365Z,25.70
2022-08-27T20:45:12.524Z,25.70
2022-08-27T20:47:41.270Z,25.70
2022-08-27T20:50:08.327Z,25.70
2022-08-27T20:52:36.221Z,25.70
2022-08-27T20:55:03.622Z,25.70
2022-08-27T20:57:30.566Z,25.70
2022-08-27T21:00:16.249Z,25.70
2022-08-27T21:02:43.092Z,25.70
2022-08-27T21:05:15.190Z,25.70
2022-08-27T21:07:42.377Z,25.70
2022-08-27T21:10:09.647Z,25.60
2022-08-27T21:12:36.543Z,25.70
2022-08-27T21:15:05.874Z,25.70
2022-08-27T21:17:32.723Z,25.70
2022-08-27T21:19:59.664Z,25.70
2022-08-27T21:22:26.648Z,25.70
2022-08-27T21:24:53.975Z,25.70
2022-08-27T21:27:21.746Z,25.70
2022-08-27T21:29:49.409Z,25.60
2022-08-27T21:32:17.093Z,25.60
2022-08-27T21:34:44.577Z,25.70
2022-08-27T21:37:14.033Z,25.70
2022-08-27T21:39:42.392Z,25.70
2022-08-27T21:42:11.364Z,25.60
2022-08-27T21:44:38.586Z,25.60
2022-08-27T21:47:06.005Z,25.60
2022-08-27T21:49:33.836Z,25.60
2022-08-27T21:52:03.470Z,25.60
2022-08-27T21:54:37.001Z,25.60
2022-08-27T21:57:05.524Z,25.60
2022-08-27T21:59:41.529Z,25.60
2022-08-27T22:02:28.810Z,25.60
2022-08-27T22:04:56.029Z,25.60
2022-08-27T22:07:24.245Z,25.60
2022-08-27T22:09:51.035Z,25.60
2022-08-27T22:12:17.815Z,25.60
2022-08-27T22:14:44.696Z,25.60
2022-08-27T22:17:15.684Z,25.60
2022-08-27T22:19:42.967Z,25.60
2022-08-27T22:22:09.822Z,25.60
2022-08-27T22:24:36.623Z,25.60
2022-08-27T22:27:03.541Z,25.60
2022-08-27T22:29:30.715Z,25.60
2022-08-27T22:31:57.905Z,25.60
2022-08-27T22:34:24.712Z,25.60
2022-08-27T22:36:51.569Z,25.60
2022-08-27T22:39:18.412Z,25.60
2022-08-27T22:41:48.639Z,25.60
2022-08-27T22:44:16.106Z,25.60
2022-08-27T22:46:43.021Z,25.60
2022-08-27T22:49:09.971Z,25.60
2022-08-27T22:51:36.910Z,25.60
2022-08-27T22:54:03.810Z,25.60
2022-08-27T22:56:30.599Z,25.60
2022-08-27T22:58:57.329Z,25.60
2022-08-27T23:01:24.717Z,25.60
2022-08-27T23:03:51.581Z,25.50
2022-08-27T23:06:18.454Z,25.60
2022-08-27T23:08:45.244Z,25.60
2022-08-27T23:11:12.463Z,25.60
2022-08-27T23:13:41.072Z,25.60
2022-08-27T23:16:09.212Z,25.60
2022-08-27T23:18:37.046Z,25.60
2022-08-27T23:21:06.068Z,25.60
2022-08-27T23:23:34.104Z,25.60
2022-08-27T23:26:19.382Z,25.60
2022-08-27T23:28:46.251Z,25.60
2022-08-27T23:31:14.126Z,25.50
2022-08-27T23:33:41.236Z,25.50
2022-08-27T23:36:08.455Z,25.50
2022-08-27T23:38:35.296Z,25.60
2022-08-27T23:41:02.198Z,25.50
2022-08-27T23:43:29.724Z,25.20
2022-08-27T23:45:57.270Z,25.60
2022-08-27T23:48:24.708Z,25.50
2022-08-27T23:50:51.969Z,25.60
2022-08-27T23:53:18.733Z,25.50
2022-08-27T23:55:45.539Z,25.50
2022-08-27T23:58:13.302Z,25.60
